Time;durP1;ratioP1;P1;durP2;ratioP2;P2;SDS_P1;SDS_P2;PMS_P1;PMS_P2;Temp;Humidity;BMP_temperature;BMP_pressure;BME280_temperature;BME280_humidity;BME280_pressure;Samples;Min_cycle;Max_cycle;Signal;HPM_P1;HPM_P2
2022/09/20 00:01:12;;;;;;;5.37;3.43;;;13.10;53.10;;;;;;20488;6849;278949;-65
2022/09/20 00:03:37;;;;;;;3.83;3.40;;;13.20;52.90;;;;;;20647;6849;119278;-65
2022/09/20 00:06:03;;;;;;;3.58;3.28;;;12.90;53.30;;;;;;20433;6849;340800;-65
2022/09/20 00:08:28;;;;;;;3.90;3.00;;;12.80;53.30;;;;;;20690;6849;117379;-65
2022/09/20 00:10:58;;;;;;;4.10;3.37;;;12.60;53.80;;;;;;20453;6849;309519;-65
2022/09/20 00:13:22;;;;;;;3.70;3.40;;;12.60;54.00;;;;;;20441;6849;308433;-65
2022/09/20 00:15:48;;;;;;;3.67;2.93;;;12.70;53.40;;;;;;20712;6847;117714;-65
2022/09/20 00:18:14;;;;;;;5.17;3.57;;;12.50;53.50;;;;;;20481;6848;313223;-66
2022/09/20 00:20:43;;;;;;;3.27;3.00;;;12.50;53.30;;;;;;20707;6849;118135;-65
2022/09/20 00:23:08;;;;;;;3.60;3.20;;;12.40;53.80;;;;;;20697;6849;120359;-65
2022/09/20 00:25:34;;;;;;;5.78;3.40;;;12.10;54.50;;;;;;20703;6849;117899;-65
2022/09/20 00:28:00;;;;;;;3.03;2.83;;;11.80;55.00;;;;;;20695;6849;118412;-65
2022/09/20 00:30:25;;;;;;;3.33;3.13;;;11.70;55.60;;;;;;20683;6849;121421;-65
2022/09/20 00:32:50;;;;;;;3.75;3.05;;;11.50;56.00;;;;;;20701;6849;118188;-65
2022/09/20 00:35:16;;;;;;;4.37;3.40;;;11.40;56.30;;;;;;20494;6849;304735;-65
2022/09/20 00:37:42;;;;;;;3.57;3.23;;;11.60;55.80;;;;;;20711;6849;118450;-65
2022/09/20 00:40:08;;;;;;;4.60;3.23;;;11.80;55.40;;;;;;20495;6849;278262;-65
2022/09/20 00:42:34;;;;;;;3.87;3.53;;;11.80;55.30;;;;;;20443;6849;337301;-65
2022/09/20 00:45:06;;;;;;;4.47;3.10;;;12.10;54.70;;;;;;20711;6849;118146;-65
2022/09/20 00:47:48;;;;;;;6.50;3.62;;;12.10;54.80;;;;;;20313;6849;338468;-66
2022/09/20 00:50:37;;;;;;;4.73;3.10;;;12.10;54.40;;;;;;20682;6849;117740;-65
2022/09/20 00:53:05;;;;;;;2.90;2.70;;;12.00;54.50;;;;;;20711;6849;118716;-65
2022/09/20 00:55:31;;;;;;;3.70;3.40;;;11.60;55.00;;;;;;20707;6849;117530;-65
2022/09/20 00:57:56;;;;;;;4.70;3.30;;;11.40;55.60;;;;;;20479;6849;331548;-65
2022/09/20 01:00:22;;;;;;;3.40;3.00;;;11.50;55.30;;;;;;20686;6849;118950;-65
2022/09/20 01:02:48;;;;;;;3.37;3.07;;;11.50;55.30;;;;;;20705;6849;123412;-65
2022/09/20 01:05:13;;;;;;;4.13;3.20;;;11.30;55.70;;;;;;20485;6849;310806;-65
2022/09/20 01:07:39;;;;;;;4.30;3.37;;;11.40;55.10;;;;;;20493;6849;312428;-66
2022/09/20 01:10:05;;;;;;;5.07;3.20;;;11.70;54.20;;;;;;20702;6849;117494;-65
2022/09/20 01:12:30;;;;;;;3.23;2.93;;;11.70;54.40;;;;;;20488;6849;279039;-65
2022/09/20 01:14:55;;;;;;;4.53;3.27;;;11.70;53.90;;;;;;20709;6849;117482;-65
2022/09/20 01:17:22;;;;;;;4.17;3.30;;;11.60;53.90;;;;;;20495;6849;278153;-65
2022/09/20 01:20:00;;;;;;;4.68;3.33;;;11.60;53.90;;;;;;20474;6849;338031;-66
2022/09/20 01:22:43;;;;;;;5.27;2.60;;;11.90;53.50;;;;;;20404;6855;121801;-66
2022/09/20 01:25:08;;;;;;;4.57;2.83;;;11.70;53.80;;;;;;20674;6855;117476;-65
2022/09/20 01:27:44;;;;;;;27.33;3.60;;;11.40;54.20;;;;;;20455;6853;308757;-65
2022/09/20 01:30:12;;;;;;;31.37;3.63;;;11.30;54.10;;;;;;20682;6854;117780;-65
2022/09/20 01:33:01;;;;;;;39.58;3.83;;;11.30;54.20;;;;;;20466;6854;308605;-65
2022/09/20 01:35:27;;;;;;;51.85;3.90;;;11.30;53.80;;;;;;20487;6854;279438;-65
2022/09/20 01:37:53;;;;;;;33.38;3.60;;;11.70;52.80;;;;;;20449;6854;308645;-65
2022/09/20 01:40:27;;;;;;;18.83;3.37;;;11.70;52.80;;;;;;20564;6854;117705;-65
2022/09/20 01:42:50;;;;;;;73.85;5.78;;;11.50;53.20;;;;;;20455;6840;296952;-66
2022/09/20 01:45:23;;;;;;;70.25;4.43;;;11.30;54.10;;;;;;20702;6840;117487;-66
2022/09/20 01:47:55;;;;;;;122.47;6.03;;;11.30;54.10;;;;;;20503;6840;308155;-66
2022/09/20 01:50:27;;;;;;;88.73;5.37;;;11.40;54.30;;;;;;20698;6840;124906;-65
2022/09/20 01:53:06;;;;;;;41.90;4.53;;;11.20;54.40;;;;;;20506;6840;307631;-65
2022/09/20 01:55:45;;;;;;;24.77;4.00;;;11.30;54.40;;;;;;20729;6840;118273;-65
2022/09/20 01:58:44;;;;;;;8.07;3.30;;;11.20;54.60;;;;;;20552;6840;117969;-65
2022/09/20 02:01:26;;;;;;;3.85;3.45;;;10.90;55.60;;;;;;20526;6840;308744;-65
2022/09/20 02:04:21;;;;;;;3.37;3.17;;;11.10;55.20;;;;;;20521;6840;278882;-65
2022/09/20 02:06:55;;;;;;;6.25;3.60;;;11.80;53.70;;;;;;20519;6840;321866;-65
2022/09/20 02:09:33;;;;;;;5.83;3.40;;;11.80;53.70;;;;;;20504;6840;304615;-65
2022/09/20 02:12:22;;;;;;;3.50;3.13;;;11.90;53.20;;;;;;20726;6840;118320;-65
2022/09/20 02:14:52;;;;;;;3.50;3.30;;;11.40;54.40;;;;;;20733;6840;117780;-66
2022/09/20 02:17:27;;;;;;;3.90;3.60;;;11.40;54.40;;;;;;20490;6840;308661;-66
2022/09/20 02:19:58;;;;;;;4.40;3.67;;;11.50;54.70;;;;;;20492;6840;313029;-66
2022/09/20 02:22:47;;;;;;;3.00;2.80;;;11.70;53.80;;;;;;20712;6840;118007;-66
2022/09/20 02:25:26;;;;;;;3.75;3.50;;;11.60;53.90;;;;;;20447;6840;339140;-65
2022/09/20 02:28:15;;;;;;;5.20;3.13;;;11.70;53.90;;;;;;20733;6840;117136;-65
2022/09/20 02:30:55;;;;;;;3.73;3.37;;;11.60;54.10;;;;;;20501;6840;300688;-65
2022/09/20 02:33:41;;;;;;;3.13;2.93;;;11.40;54.20;;;;;;20734;6840;124099;-66
2022/09/20 02:36:16;;;;;;;4.70;3.23;;;11.40;54.20;;;;;;20735;6840;125481;-65
2022/09/20 02:38:48;;;;;;;3.43;3.10;;;11.10;54.90;;;;;;20725;6838;117099;-65
2022/09/20 02:41:33;;;;;;;3.40;3.10;;;10.90;55.60;;;;;;20503;6839;282451;-65
2022/09/20 02:44:29;;;;;;;4.80;3.33;;;11.00;55.10;;;;;;20732;6839;117179;-65
2022/09/20 02:47:11;;;;;;;3.80;2.80;;;11.00;55.10;;;;;;20734;6839;120521;-65
2022/09/20 02:49:56;;;;;;;4.00;3.53;;;10.70;55.50;;;;;;20504;6840;341528;-65
2022/09/20 02:52:31;;;;;;;4.03;3.60;;;10.90;55.30;;;;;;20456;6840;312341;-65
2022/09/20 02:55:06;;;;;;;3.60;3.30;;;11.20;54.30;;;;;;20489;6840;303984;-65
2022/09/20 02:57:32;;;;;;;6.07;3.60;;;11.50;53.70;;;;;;20506;6840;307765;-65
2022/09/20 03:00:04;;;;;;;3.92;3.50;;;11.70;53.00;;;;;;20499;6840;278790;-65
2022/09/20 03:02:29;;;;;;;4.07;2.93;;;11.70;52.80;;;;;;20697;6840;117856;-65
2022/09/20 03:05:28;;;;;;;4.20;3.10;;;11.10;54.00;;;;;;20702;6840;117306;-65
2022/09/20 03:07:57;;;;;;;3.63;3.23;;;11.10;54.00;;;;;;20515;6840;278041;-65
2022/09/20 03:10:33;;;;;;;4.40;2.90;;;11.20;53.90;;;;;;20465;6840;306403;-65
2022/09/20 03:13:21;;;;;;;3.90;3.10;;;11.40;53.30;;;;;;20486;6840;307643;-65
2022/09/20 03:15:51;;;;;;;6.22;3.62;;;11.80;51.90;;;;;;20505;6840;302448;-65
2022/09/20 03:18:16;;;;;;;4.33;3.10;;;11.80;51.90;;;;;;20478;6840;278926;-65
2022/09/20 03:20:45;;;;;;;3.23;2.80;;;11.90;52.00;;;;;;20506;6840;308206;-65
2022/09/20 03:23:34;;;;;;;3.27;2.93;;;12.00;51.90;;;;;;20522;6840;308163;-65
2022/09/20 03:26:09;;;;;;;4.73;3.00;;;12.10;51.50;;;;;;19478;7186;321042;-65
2022/09/20 03:28:45;;;;;;;3.35;2.92;;;12.30;50.80;;;;;;19878;6849;309046;-65
2022/09/20 03:31:30;;;;;;;2.87;2.63;;;12.20;50.70;;;;;;20006;6855;119057;-65
2022/09/20 03:34:08;;;;;;;3.10;2.80;;;12.00;51.40;;;;;;20659;6855;121280;-66
2022/09/20 03:36:55;;;;;;;4.25;3.20;;;11.70;52.50;;;;;;20451;6855;308673;-64
2022/09/20 03:39:30;;;;;;;6.33;2.90;;;11.70;52.50;;;;;;20663;6855;117175;-63
2022/09/20 03:42:02;;;;;;;5.47;2.97;;;11.60;52.80;;;;;;20653;6855;117485;-65
2022/09/20 03:45:04;;;;;;;4.33;3.17;;;11.30;53.20;;;;;;20457;6840;336676;-64
2022/09/20 03:47:53;;;;;;;3.85;3.10;;;11.80;52.10;;;;;;20493;6840;310306;-64
2022/09/20 03:50:22;;;;;;;2.47;2.37;;;11.80;52.10;;;;;;20717;6838;117843;-64
2022/09/20 03:53:08;;;;;;;3.60;2.47;;;11.30;53.10;;;;;;20710;6839;117659;-64
2022/09/20 03:55:54;;;;;;;4.13;2.80;;;11.30;53.10;;;;;;20705;6839;117524;-64
2022/09/20 03:58:23;;;;;;;6.15;2.92;;;11.10;53.80;;;;;;20507;6839;309682;-66
2022/09/20 04:00:52;;;;;;;3.50;2.40;;;11.30;54.20;;;;;;20693;6840;118502;-66
2022/09/20 04:03:31;;;;;;;3.77;2.60;;;11.10;54.60;;;;;;20736;6840;121138;-66
2022/09/20 04:06:16;;;;;;;3.33;2.50;;;11.10;54.50;;;;;;20684;6840;117212;-66
2022/09/20 04:08:59;;;;;;;5.12;3.10;;;11.00;55.00;;;;;;20484;6840;338404;-67
2022/09/20 04:11:25;;;;;;;4.33;3.20;;;11.20;54.10;;;;;;20440;6840;278991;-66
2022/09/20 04:14:03;;;;;;;3.65;3.45;;;11.60;53.50;;;;;;20444;6851;313632;-66
2022/09/20 04:16:28;;;;;;;4.75;3.40;;;11.80;52.90;;;;;;20456;6849;279940;-66
2022/09/20 04:18:55;;;;;;;5.55;2.80;;;12.00;52.30;;;;;;20637;6851;118063;-64
2022/09/20 04:21:23;;;;;;;3.57;2.87;;;11.60;53.50;;;;;;20637;6871;118373;-65
2022/09/20 04:24:02;;;;;;;6.37;3.47;;;11.50;53.40;;;;;;20426;6871;309764;-64
2022/09/20 04:26:29;;;;;;;4.60;3.57;;;11.90;52.70;;;;;;20398;6871;279526;-66
2022/09/20 04:29:07;;;;;;;3.30;3.00;;;11.90;52.70;;;;;;20640;6864;117645;-66
2022/09/20 04:31:33;;;;;;;4.53;3.50;;;11.80;52.90;;;;;;20705;6849;118296;-65
2022/09/20 04:33:58;;;;;;;3.80;2.80;;;11.40;53.40;;;;;;20706;6849;117288;-69
2022/09/20 04:36:30;;;;;;;3.73;2.93;;;11.10;53.90;;;;;;20676;6849;121667;-69
2022/09/20 04:39:06;;;;;;;3.95;3.55;;;10.90;54.50;;;;;;20471;6849;309360;-68
2022/09/20 04:41:51;;;;;;;2.90;2.70;;;11.10;54.30;;;;;;20701;6849;117636;-70
2022/09/20 04:44:57;;;;;;;3.10;2.90;;;11.10;54.30;;;;;;20658;6849;120256;-67
2022/09/20 04:47:39;;;;;;;4.25;2.92;;;10.90;54.30;;;;;;20476;6849;343053;-67
2022/09/20 04:50:31;;;;;;;8.90;3.00;;;11.10;54.90;;;;;;20678;6849;119613;-67
2022/09/20 04:53:03;;;;;;;3.33;3.03;;;11.10;54.80;;;;;;20000;6849;118652;-66
2022/09/20 04:55:30;;;;;;;4.55;3.28;;;10.90;55.10;;;;;;20499;6849;280962;-67
2022/09/20 04:58:09;;;;;;;3.40;3.10;;;11.10;54.80;;;;;;20449;6849;307474;-66
2022/09/20 05:00:42;;;;;;;3.40;3.07;;;11.40;54.00;;;;;;20688;6849;122101;-66
2022/09/20 05:03:10;;;;;;;5.00;3.20;;;11.30;54.10;;;;;;20585;6847;123201;-71
2022/09/20 05:05:45;;;;;;;3.93;3.10;;;11.10;54.70;;;;;;20481;6848;308524;-66
2022/09/20 05:08:21;;;;;;;3.00;2.80;;;11.20;54.40;;;;;;20704;6849;117211;-66
2022/09/20 05:11:26;;;;;;;3.80;3.40;;;11.20;54.40;;;;;;20362;6849;308013;-65
2022/09/20 05:14:23;;;;;;;3.50;2.97;;;11.40;54.20;;;;;;20491;6849;338454;-64
2022/09/20 05:17:09;;;;;;;5.63;3.00;;;11.60;53.90;;;;;;20701;6849;117406;-64
2022/09/20 05:19:57;;;;;;;3.60;2.90;;;11.50;53.80;;;;;;20149;6849;308592;-67
2022/09/20 05:22:53;;;;;;;3.83;3.50;;;11.90;53.40;;;;;;20457;6849;308715;-68
2022/09/20 05:25:43;;;;;;;3.47;3.10;;;11.90;53.30;;;;;;20503;6849;278494;-67
2022/09/20 05:28:11;;;;;;;3.90;3.10;;;12.10;52.90;;;;;;20150;6858;308177;-67
2022/09/20 05:30:47;;;;;;;4.65;3.10;;;12.20;52.80;;;;;;20403;6864;308927;-65
2022/09/20 05:33:22;;;;;;;3.47;2.80;;;12.30;52.10;;;;;;20401;6849;312542;-67
2022/09/20 05:36:07;;;;;;;4.20;2.70;;;12.40;51.80;;;;;;20692;6849;117811;-66
2022/09/20 05:38:50;;;;;;;6.20;2.83;;;11.80;53.90;;;;;;20684;6849;117256;-66
2022/09/20 05:41:32;;;;;;;3.37;2.40;;;11.80;53.30;;;;;;20688;6849;117713;-66
2022/09/20 05:44:05;;;;;;;4.20;3.03;;;11.50;54.00;;;;;;20693;6849;117752;-65
2022/09/20 05:46:56;;;;;;;5.95;3.40;;;11.20;54.50;;;;;;20474;6849;279053;-66
2022/09/20 05:49:59;;;;;;;3.67;3.20;;;11.40;54.70;;;;;;20492;6849;313919;-66
2022/09/20 05:52:25;;;;;;;4.10;2.93;;;11.60;54.30;;;;;;20684;6849;123713;-67
2022/09/20 05:55:10;;;;;;;3.57;3.03;;;11.60;54.20;;;;;;19929;6849;117876;-66
2022/09/20 05:57:55;;;;;;;2.93;2.70;;;11.40;54.90;;;;;;20715;6849;117611;-66
2022/09/20 06:00:18;;;;;;;3.73;3.27;;;11.20;55.60;;;;;;20432;6849;289913;-65
2022/09/20 06:02:54;;;;;;;3.23;3.03;;;11.40;55.60;;;;;;20696;6849;119164;-65
2022/09/20 06:05:23;;;;;;;5.70;2.80;;;11.40;55.60;;;;;;20678;6849;117624;-65
2022/09/20 06:08:11;;;;;;;3.60;2.90;;;11.20;55.80;;;;;;20714;6849;117625;-66
2022/09/20 06:10:38;;;;;;;2.87;2.30;;;11.00;56.20;;;;;;20690;6849;123733;-66
2022/09/20 06:13:20;;;;;;;2.90;2.60;;;11.30;58.80;;;;;;20498;6847;307636;-66
2022/09/20 06:15:49;;;;;;;5.07;3.33;;;11.60;57.80;;;;;;20687;6848;121093;-66
2022/09/20 06:18:15;;;;;;;4.35;3.12;;;11.50;57.60;;;;;;20440;6849;309338;-67
2022/09/20 06:21:03;;;;;;;4.57;2.60;;;11.90;56.40;;;;;;20692;6849;117443;-66
2022/09/20 06:23:29;;;;;;;3.75;2.97;;;11.90;55.90;;;;;;20498;6849;308970;-66
2022/09/20 06:25:56;;;;;;;3.13;2.83;;;12.20;55.10;;;;;;20697;6849;117284;-67
2022/09/20 06:28:23;;;;;;;5.30;3.20;;;12.10;54.90;;;;;;20447;6849;281189;-66
2022/09/20 06:30:49;;;;;;;3.80;3.20;;;12.30;54.80;;;;;;20482;6849;279130;-66
2022/09/20 06:33:17;;;;;;;3.07;2.77;;;12.60;55.20;;;;;;20631;6849;118512;-66
2022/09/20 06:35:46;;;;;;;4.77;3.30;;;12.60;55.40;;;;;;20473;6849;279120;-65
2022/09/20 06:41:27;;;;;;;3.27;2.67;;;13.00;55.30;;;;;;20705;6849;117695;-66
2022/09/20 06:43:57;;;;;;;5.18;4.68;;;12.90;55.60;;;;;;20491;6849;279535;-67
2022/09/20 06:46:19;;;;;;;33.40;28.23;;;13.10;55.50;;;;;;20674;6849;118371;-67
2022/09/20 06:48:44;;;;;;;6.50;5.30;;;13.00;55.50;;;;;;20494;6849;312742;-67
2022/09/20 06:51:11;;;;;;;3.50;3.20;;;13.10;55.00;;;;;;20490;6849;309016;-65
2022/09/20 06:53:36;;;;;;;5.15;3.37;;;13.30;55.00;;;;;;20702;6849;118858;-67
2022/09/20 06:56:01;;;;;;;3.35;3.05;;;13.30;55.00;;;;;;20484;6849;337581;-67
2022/09/20 06:58:28;;;;;;;3.47;3.17;;;13.70;56.00;;;;;;20476;6849;307876;-65
2022/09/20 07:00:53;;;;;;;3.63;3.30;;;13.60;55.90;;;;;;20706;6849;117461;-66
2022/09/20 07:03:20;;;;;;;4.70;3.20;;;13.50;56.00;;;;;;20710;6849;117355;-65
2022/09/20 07:05:45;;;;;;;2.93;2.73;;;13.50;56.50;;;;;;20707;6849;117296;-66
2022/09/20 07:08:11;;;;;;;3.40;3.10;;;13.30;56.60;;;;;;20712;6849;117667;-66
2022/09/20 07:10:37;;;;;;;5.40;3.20;;;13.30;56.90;;;;;;20475;6849;297914;-66
2022/09/20 07:13:02;;;;;;;3.05;2.60;;;13.50;56.70;;;;;;20707;6849;117253;-65
2022/09/20 07:15:27;;;;;;;3.80;3.40;;;13.60;56.60;;;;;;20483;6849;309009;-67
2022/09/20 07:17:53;;;;;;;3.28;3.05;;;13.70;55.50;;;;;;20704;6849;117283;-68
2022/09/20 07:20:19;;;;;;;5.55;5.05;;;13.80;55.60;;;;;;20469;6849;334804;-67
2022/09/20 07:22:44;;;;;;;3.70;3.37;;;13.90;55.20;;;;;;20708;6849;117497;-67
2022/09/20 07:25:10;;;;;;;3.65;3.25;;;13.90;55.20;;;;;;20494;6847;314432;-69
2022/09/20 07:27:35;;;;;;;2.90;2.70;;;14.00;55.00;;;;;;20707;6848;117262;-66
2022/09/20 07:30:01;;;;;;;6.10;3.23;;;14.10;54.50;;;;;;20499;6849;280022;-67
2022/09/20 07:32:27;;;;;;;3.97;3.58;;;14.10;54.50;;;;;;20474;6849;282180;-66
2022/09/20 07:34:53;;;;;;;3.22;3.00;;;14.40;54.10;;;;;;20493;6849;330750;-66
2022/09/20 07:37:19;;;;;;;3.87;3.00;;;14.80;53.00;;;;;;20493;6849;278707;-64
2022/09/20 07:39:44;;;;;;;3.23;2.93;;;14.80;52.90;;;;;;20707;6849;122987;-65
2022/09/20 07:42:10;;;;;;;3.50;2.93;;;14.60;53.40;;;;;;20495;6849;307293;-67
2022/09/20 07:44:39;;;;;;;2.77;2.57;;;14.60;54.50;;;;;;20684;6849;122275;-64
2022/09/20 07:47:02;;;;;;;3.55;3.12;;;14.60;54.50;;;;;;20481;6849;318309;-66
2022/09/20 07:49:30;;;;;;;3.83;3.10;;;14.70;54.80;;;;;;20493;6849;308099;-65
2022/09/20 07:51:57;;;;;;;3.40;3.00;;;15.20;53.00;;;;;;20495;6849;307793;-65
2022/09/20 07:54:22;;;;;;;3.83;3.23;;;15.20;53.00;;;;;;20481;6849;307794;-66
2022/09/20 07:56:48;;;;;;;2.83;2.62;;;15.40;52.60;;;;;;20706;6849;117491;-64
2022/09/20 07:59:14;;;;;;;2.90;2.70;;;15.40;53.30;;;;;;20496;6849;278451;-68
2022/09/20 08:01:39;;;;;;;2.77;2.33;;;15.60;53.90;;;;;;20703;6849;117673;-66
2022/09/20 08:04:05;;;;;;;3.40;3.10;;;15.90;53.50;;;;;;20474;6849;310868;-66
2022/09/20 08:06:31;;;;;;;3.22;2.97;;;15.90;52.80;;;;;;20467;6849;307832;-70
2022/09/20 08:08:56;;;;;;;3.60;2.53;;;16.20;51.70;;;;;;20482;6849;312281;-67
2022/09/20 08:11:28;;;;;;;4.93;2.83;;;16.50;52.00;;;;;;20700;6849;120165;-66
2022/09/20 08:13:51;;;;;;;5.87;2.50;;;16.40;51.90;;;;;;20677;6849;118251;-66
2022/09/20 08:16:17;;;;;;;3.28;2.97;;;16.20;52.20;;;;;;20444;6849;305979;-67
2022/09/20 08:18:46;;;;;;;3.10;2.80;;;16.30;52.20;;;;;;20692;6849;118455;-67
2022/09/20 08:21:12;;;;;;;3.00;2.70;;;16.30;52.20;;;;;;20708;6849;120082;-67
2022/09/20 08:23:40;;;;;;;4.43;2.90;;;16.20;53.30;;;;;;20498;6849;277741;-67
2022/09/20 08:26:06;;;;;;;3.17;2.73;;;16.50;51.80;;;;;;20489;6849;280790;-68
2022/09/20 08:28:32;;;;;;;4.00;3.03;;;16.80;51.80;;;;;;20448;6849;428535;-70
2022/09/20 08:31:03;;;;;;;4.03;3.10;;;17.30;50.60;;;;;;20471;6849;291353;-70
2022/09/20 08:33:29;;;;;;;4.83;2.60;;;17.60;50.20;;;;;;20697;6849;118552;-69
2022/09/20 08:35:55;;;;;;;4.03;2.73;;;17.70;50.50;;;;;;20696;6849;123123;-69
2022/09/20 08:38:25;;;;;;;3.07;2.77;;;17.60;51.10;;;;;;20466;6848;308873;-70
2022/09/20 08:40:48;;;;;;;3.37;3.08;;;18.40;49.10;;;;;;20476;6849;311450;-70
2022/09/20 08:43:12;;;;;;;3.62;2.80;;;18.30;49.00;;;;;;20490;6849;307825;-71
2022/09/20 08:45:38;;;;;;;2.90;2.70;;;18.80;48.20;;;;;;20486;6849;333045;-71
2022/09/20 08:48:04;;;;;;;2.67;2.40;;;19.30;48.10;;;;;;20705;6849;117289;-70
2022/09/20 08:50:29;;;;;;;3.63;3.10;;;19.30;48.30;;;;;;20459;6849;308487;-70
2022/09/20 08:52:54;;;;;;;3.50;2.37;;;19.30;45.10;;;;;;20503;6849;308514;-70
2022/09/20 08:55:20;;;;;;;5.47;3.30;;;19.40;46.70;;;;;;20493;6849;299099;-70
2022/09/20 08:57:49;;;;;;;3.37;2.73;;;19.40;46.00;;;;;;20493;6849;278431;-70
2022/09/20 09:00:19;;;;;;;3.80;2.80;;;18.90;46.40;;;;;;20676;6849;131169;-71
2022/09/20 09:02:44;;;;;;;3.90;2.92;;;18.80;45.60;;;;;;20486;6849;341451;-70
2022/09/20 09:05:37;;;;;;;3.10;2.62;;;18.60;47.30;;;;;;20494;6849;310650;-70
2022/09/20 09:08:03;;;;;;;4.23;3.17;;;18.60;47.30;;;;;;20484;6849;280604;-68
2022/09/20 09:10:31;;;;;;;3.00;2.70;;;18.70;47.20;;;;;;20661;6849;117309;-70
2022/09/20 09:12:57;;;;;;;2.63;2.30;;;18.70;48.00;;;;;;20554;6849;121424;-69
2022/09/20 09:15:29;;;;;;;2.80;2.60;;;18.50;48.60;;;;;;20696;6849;122264;-78
2022/09/20 09:17:54;;;;;;;4.47;2.27;;;18.40;49.20;;;;;;20695;6849;117241;-72
2022/09/20 09:20:23;;;;;;;5.20;2.17;;;18.40;49.10;;;;;;20682;6849;118081;-71
2022/09/20 09:22:59;;;;;;;3.13;2.30;;;18.40;49.20;;;;;;20504;6849;278424;-74
2022/09/20 09:25:33;;;;;;;3.90;2.40;;;18.70;46.80;;;;;;20466;6849;308136;-73
2022/09/20 09:28:06;;;;;;;6.20;1.90;;;19.20;44.80;;;;;;20705;6849;117759;-70
2022/09/20 09:30:34;;;;;;;1.70;1.60;;;19.40;44.50;;;;;;20685;6849;118873;-73
2022/09/20 09:33:13;;;;;;;3.28;2.03;;;19.20;45.30;;;;;;20389;6849;308956;-72
2022/09/20 09:35:38;;;;;;;2.10;1.60;;;19.30;43.70;;;;;;20592;6849;114602;-75
2022/09/20 09:38:04;;;;;;;3.13;1.40;;;19.10;44.20;;;;;;20713;6849;117131;-74
2022/09/20 09:40:38;;;;;;;2.73;1.70;;;18.80;44.40;;;;;;20477;6849;310038;-73
2022/09/20 09:43:04;;;;;;;3.53;1.90;;;18.80;41.50;;;;;;20675;6849;118911;-74
2022/09/20 09:45:29;;;;;;;4.60;1.97;;;18.80;43.80;;;;;;20677;6849;119916;-75
2022/09/20 09:47:55;;;;;;;3.60;2.30;;;18.70;43.90;;;;;;20468;6847;311634;-74
2022/09/20 09:50:27;;;;;;;4.75;2.25;;;18.80;41.50;;;;;;20463;6848;277812;-74
2022/09/20 09:52:59;;;;;;;7.23;2.00;;;19.00;44.00;;;;;;20676;6849;117922;-74
2022/09/20 09:55:28;;;;;;;6.27;2.20;;;18.80;44.20;;;;;;20492;6849;278929;-74
2022/09/20 09:58:00;;;;;;;4.85;1.90;;;18.60;42.50;;;;;;20451;6849;308023;-72
2022/09/20 10:00:27;;;;;;;4.00;2.00;;;18.70;41.00;;;;;;20619;6849;126980;-74
2022/09/20 10:03:22;;;;;;;4.70;1.52;;;18.40;42.30;;;;;;20506;6849;310412;-75
2022/09/20 10:06:10;;;;;;;4.17;1.60;;;18.40;39.70;;;;;;20697;6849;123592;-75
2022/09/20 10:08:38;;;;;;;6.77;1.87;;;18.10;41.10;;;;;;20673;6849;118539;-75
2022/09/20 10:11:32;;;;;;;5.23;1.90;;;17.80;42.30;;;;;;20473;6849;308163;-74
2022/09/20 10:14:16;;;;;;;3.03;1.77;;;17.90;40.40;;;;;;20702;6849;117637;-73
2022/09/20 10:16:48;;;;;;;3.73;1.50;;;18.00;41.60;;;;;;20699;6849;118010;-73
2022/09/20 10:19:40;;;;;;;4.80;1.53;;;17.80;42.20;;;;;;20492;6849;312590;-73
2022/09/20 10:22:12;;;;;;;3.80;1.47;;;18.00;39.40;;;;;;20724;6849;119531;-74
2022/09/20 10:24:58;;;;;;;2.13;1.30;;;18.10;40.80;;;;;;20711;6849;125252;-74
2022/09/20 10:27:32;;;;;;;3.10;1.40;;;17.90;41.40;;;;;;20704;6849;118525;-74
2022/09/20 10:30:08;;;;;;;5.47;2.03;;;17.70;42.00;;;;;;20708;6849;117323;-73
2022/09/20 10:32:39;;;;;;;5.10;1.90;;;17.50;42.50;;;;;;20472;6849;312629;-74
2022/09/20 10:35:14;;;;;;;5.45;2.12;;;17.80;41.30;;;;;;20507;6849;312786;-74
2022/09/20 10:38:00;;;;;;;3.60;1.50;;;18.10;40.30;;;;;;20482;6849;280400;-75
2022/09/20 10:43:41;;;;;;;2.60;1.70;;;18.70;37.40;;;;;;20504;6849;305756;-73
2022/09/20 10:46:26;;;;;;;5.17;2.47;;;18.80;36.50;;;;;;20478;6849;278523;-72
2022/09/20 10:48:52;;;;;;;3.93;1.73;;;19.10;36.70;;;;;;20699;6849;117965;-73
2022/09/20 10:51:17;;;;;;;2.70;1.80;;;19.10;37.80;;;;;;20389;6849;337592;-68
2022/09/20 10:53:50;;;;;;;4.57;1.83;;;19.30;37.90;;;;;;20503;6849;307865;-77
2022/09/20 10:56:28;;;;;;;3.20;1.50;;;19.60;38.30;;;;;;20463;6849;309277;-82
2022/09/20 10:59:17;;;;;;;3.60;2.00;;;19.90;35.60;;;;;;20695;6849;117977;-76
2022/09/20 11:01:53;;;;;;;3.92;1.77;;;19.60;36.80;;;;;;20490;6848;338131;-75
2022/09/20 11:04:51;;;;;;;2.17;1.60;;;19.60;37.00;;;;;;20656;6849;121504;-72
2022/09/20 11:07:17;;;;;;;5.10;2.10;;;19.20;37.70;;;;;;20492;6849;278638;-71
2022/09/20 11:09:42;;;;;;;3.40;1.87;;;19.10;36.80;;;;;;20696;6849;119435;-74
2022/09/20 11:12:26;;;;;;;4.60;1.87;;;18.80;38.00;;;;;;20488;6849;307640;-73
2022/09/20 11:15:03;;;;;;;3.67;1.90;;;18.70;37.30;;;;;;20714;6849;117442;-77
2022/09/20 11:17:32;;;;;;;3.70;1.60;;;18.40;38.10;;;;;;20496;6849;278908;-75
2022/09/20 11:20:04;;;;;;;3.40;1.70;;;18.30;40.10;;;;;;20487;6849;278595;-76
2022/09/20 11:22:39;;;;;;;3.23;1.60;;;18.40;42.30;;;;;;20473;6849;314437;-73
2022/09/20 11:25:05;;;;;;;3.20;1.60;;;18.90;41.00;;;;;;20478;6849;312298;-72
2022/09/20 11:27:38;;;;;;;3.83;1.70;;;18.90;41.00;;;;;;20463;6849;313858;-72
2022/09/20 11:30:03;;;;;;;2.13;1.70;;;19.10;41.40;;;;;;20700;6849;117477;-74
2022/09/20 11:32:31;;;;;;;4.90;1.40;;;19.00;42.20;;;;;;20648;6849;121638;-74
2022/09/20 11:35:01;;;;;;;4.47;2.13;;;18.90;42.60;;;;;;20482;6849;302383;-74
2022/09/20 11:37:26;;;;;;;4.93;2.47;;;19.00;41.20;;;;;;20468;6849;309096;-72
2022/09/20 11:39:55;;;;;;;7.22;2.10;;;19.30;40.50;;;;;;20671;6849;119359;-72
2022/09/20 11:42:25;;;;;;;3.72;1.75;;;19.30;40.90;;;;;;20451;6849;334233;-69
2022/09/20 11:44:50;;;;;;;5.40;2.33;;;19.40;40.90;;;;;;20691;6849;118154;-70
2022/09/20 11:47:22;;;;;;;2.70;1.85;;;19.20;41.20;;;;;;20491;6849;308288;-67
2022/09/20 11:50:11;;;;;;;5.13;1.70;;;19.20;41.90;;;;;;20563;6849;118778;-70
2022/09/20 11:53:03;;;;;;;3.97;2.57;;;19.10;41.80;;;;;;20693;6849;117884;-70
2022/09/20 11:55:47;;;;;;;4.47;2.33;;;18.90;43.40;;;;;;20487;6849;307322;-67
2022/09/20 11:58:12;;;;;;;2.10;1.90;;;19.10;41.70;;;;;;20711;6849;117293;-68
2022/09/20 12:00:37;;;;;;;3.27;2.23;;;19.10;41.70;;;;;;20505;6840;308597;-69
2022/09/20 12:03:04;;;;;;;2.10;1.50;;;19.30;42.50;;;;;;20713;6840;117813;-68
2022/09/20 12:05:32;;;;;;;3.30;1.87;;;19.30;42.50;;;;;;20680;6855;117323;-68
2022/09/20 12:07:56;;;;;;;3.37;2.70;;;19.20;40.60;;;;;;20462;6855;330951;-69
2022/09/20 12:10:29;;;;;;;3.05;2.10;;;19.20;40.80;;;;;;20451;6843;311720;-68
2022/09/20 12:12:53;;;;;;;2.53;2.33;;;19.50;41.30;;;;;;20707;6842;117923;-68
2022/09/20 12:15:29;;;;;;;5.53;1.63;;;19.50;42.00;;;;;;20691;6847;117664;-68
2022/09/20 12:17:55;;;;;;;3.33;2.53;;;19.30;42.40;;;;;;20471;6856;308567;-67
2022/09/20 12:20:33;;;;;;;3.97;1.67;;;19.40;41.70;;;;;;20460;6856;284158;-68
2022/09/20 12:23:30;;;;;;;2.37;1.80;;;19.80;40.70;;;;;;20685;6855;117788;-69
2022/09/20 12:26:04;;;;;;;3.37;2.13;;;20.00;41.10;;;;;;20424;6855;118312;-68
2022/09/20 12:28:33;;;;;;;4.93;2.33;;;19.80;40.70;;;;;;20651;6855;117368;-69
2022/09/20 12:31:25;;;;;;;3.63;1.57;;;19.70;40.50;;;;;;20679;6855;118732;-68
2022/09/20 12:34:10;;;;;;;4.40;2.00;;;19.50;40.60;;;;;;19965;6855;327959;-68
2022/09/20 12:36:35;;;;;;;3.45;1.77;;;19.70;39.10;;;;;;20455;6847;307803;-68
2022/09/20 12:39:01;;;;;;;3.00;1.70;;;20.30;38.00;;;;;;20471;6847;308334;-68
2022/09/20 12:41:28;;;;;;;3.23;1.50;;;20.10;39.30;;;;;;20710;6847;117390;-67
2022/09/20 12:44:00;;;;;;;1.47;1.30;;;20.10;38.60;;;;;;20652;6847;118824;-69
2022/09/20 12:46:25;;;;;;;3.53;1.87;;;19.80;39.50;;;;;;20432;6847;308963;-70
2022/09/20 12:48:51;;;;;;;2.58;1.70;;;19.90;39.90;;;;;;20483;6847;345623;-71
2022/09/20 12:54:06;;;;;;;2.07;1.37;;;20.10;38.90;;;;;;20713;6847;118080;-70
2022/09/20 12:56:33;;;;;;;3.10;1.40;;;19.80;39.00;;;;;;20670;6847;117323;-70
2022/09/20 12:58:59;;;;;;;2.30;1.50;;;19.40;40.70;;;;;;20699;6847;117802;-70
2022/09/20 13:01:23;;;;;;;2.00;1.60;;;19.40;40.70;;;;;;20702;6847;117246;-70
2022/09/20 13:03:48;;;;;;;1.90;1.67;;;19.20;41.40;;;;;;20498;6847;308758;-70
2022/09/20 13:06:15;;;;;;;3.78;1.95;;;19.30;38.20;;;;;;20466;6847;309457;-73
2022/09/20 13:08:39;;;;;;;2.30;1.70;;;19.60;38.60;;;;;;20496;6847;299628;-72
2022/09/20 13:11:05;;;;;;;3.03;1.80;;;19.70;40.00;;;;;;20683;6847;117464;-72
2022/09/20 13:14:07;;;;;;;1.83;1.70;;;19.60;40.40;;;;;;20702;6847;117326;-70